Time;durP1;ratioP1;P1;durP2;ratioP2;P2;SDS_P1;SDS_P2;PMS_P1;PMS_P2;Temp;Humidity;BMP_temperature;BMP_pressure;BME280_temperature;BME280_humidity;BME280_pressure;Samples;Min_cycle;Max_cycle;Signal;HPM_P1;HPM_P2
2022/06/26 00:02:19;510075.00;1.70;879.17;65241.00;0.22;113.54;;;;;23.60;1.00;;;;;;2276168;61;1059;-83
2022/06/26 00:04:45;508691.00;1.70;876.79;120403.00;0.40;208.78;;;;;23.60;1.00;;;;;;2276335;61;1109;-83
2022/06/26 00:07:13;345163.00;1.15;595.55;70826.00;0.24;123.19;;;;;23.70;1.00;;;;;;2276897;61;1911;-82
2022/06/26 00:09:40;351769.00;1.17;606.90;63558.00;0.21;110.63;;;;;23.70;1.00;;;;;;2276771;61;1307;-83
2022/06/26 00:12:07;250192.00;0.83;432.28;69777.00;0.23;121.38;;;;;23.80;1.00;;;;;;2276972;61;1110;-83
2022/06/26 00:14:36;572618.00;1.91;986.96;73006.00;0.24;126.95;;;;;23.80;1.00;;;;;;2276882;61;1062;-84
2022/06/26 00:17:03;416086.00;1.39;717.46;73171.00;0.24;127.24;;;;;23.80;1.00;;;;;;2276973;61;1097;-84
2022/06/26 00:19:30;364419.00;1.21;628.64;67670.00;0.23;117.73;;;;;23.70;1.00;;;;;;2276899;61;1415;-83
2022/06/26 00:21:57;583373.00;1.94;1005.52;193586.00;0.65;334.88;;;;;23.70;1.00;;;;;;2276829;61;1030;-84
2022/06/26 00:24:24;701872.00;2.34;1210.48;64630.00;0.22;112.48;;;;;24.00;1.00;;;;;;2276607;61;1094;-84
2022/06/26 00:26:51;668763.00;2.23;1153.11;75194.00;0.25;130.73;;;;;23.40;1.00;;;;;;2276723;61;1988;-83
2022/06/26 00:29:17;534677.00;1.78;921.55;75826.00;0.25;131.83;;;;;23.20;1.00;;;;;;2276808;61;1394;-83
2022/06/26 00:31:46;413822.00;1.38;713.57;68102.00;0.23;118.48;;;;;23.10;1.00;;;;;;2276797;61;1102;-83
2022/06/26 00:34:13;118896280.00;396.32;68084488.00;68575.00;0.23;119.30;;;;;23.30;1.00;;;;;;2276763;61;1140;-84
2022/06/26 00:36:39;329206.00;1.10;568.12;69042.00;0.23;120.10;;;;;23.10;1.00;;;;;;2276786;61;1084;-84
2022/06/26 00:39:06;476262.00;1.59;820.96;64886.00;0.22;112.92;;;;;22.90;1.00;;;;;;2276682;61;1536;-82
2022/06/26 00:41:33;441763.00;1.47;761.61;71118.00;0.24;123.69;;;;;23.00;1.00;;;;;;2276788;61;1059;-84
2022/06/26 00:44:00;434726.00;1.45;749.51;70246.00;0.23;122.19;;;;;22.80;1.00;;;;;;2276820;61;1138;-84
2022/06/26 00:46:27;537813.00;1.79;926.95;113970.00;0.38;197.68;;;;;22.50;1.00;;;;;;2276742;61;1994;-84
2022/06/26 00:48:55;186219.00;0.62;322.20;75783.00;0.25;131.75;;;;;22.10;1.00;;;;;;2276625;61;2144;-82
2022/06/26 00:51:24;397848.00;1.33;686.11;73637.00;0.25;128.04;;;;;22.30;1.00;;;;;;2276759;61;1138;-83
2022/06/26 00:53:51;118798832.00;396.00;67917064.00;72596.00;0.24;126.25;;;;;22.30;1.00;;;;;;2276693;61;1121;-83
2022/06/26 00:56:17;117314296.00;391.05;65400428.00;85719.00;0.29;148.92;;;;;22.30;1.00;;;;;;2276729;61;1087;-84
2022/06/26 00:58:44;167857.00;0.56;290.58;67147.00;0.22;116.83;;;;;22.80;1.00;;;;;;2276686;61;1359;-83
2022/06/26 01:01:11;187148.00;0.62;323.80;65577.00;0.22;114.12;;;;;22.90;1.00;;;;;;2276704;61;1107;-83
2022/06/26 01:03:38;189920.00;0.63;328.57;75317.00;0.25;130.95;;;;;22.80;1.00;;;;;;2276701;61;1456;-84
2022/06/26 01:06:08;169927.00;0.57;294.14;64394.00;0.21;112.07;;;;;22.70;1.00;;;;;;2276664;61;977;-84
2022/06/26 01:08:35;189835.00;0.63;328.42;68426.00;0.23;119.04;;;;;22.70;1.00;;;;;;2276670;61;2001;-83
2022/06/26 01:11:17;168560.00;0.56;291.79;70675.00;0.24;122.93;;;;;23.00;1.00;;;;;;2276729;61;1067;-84
2022/06/26 01:13:45;271850.00;0.91;469.52;0.00;0.00;0.62;;;;;23.50;1.00;;;;;;2276628;61;1108;-83
2022/06/26 01:16:13;168214.00;0.56;291.19;0.00;0.00;0.62;;;;;23.70;1.00;;;;;;2276611;61;1102;-83
2022/06/26 01:18:40;123197.00;0.41;213.60;0.00;0.00;0.62;;;;;24.00;1.00;;;;;;2276377;61;1252;-83
2022/06/26 01:21:09;172628.00;0.58;298.79;0.00;0.00;0.62;;;;;24.10;1.00;;;;;;2275925;61;1086;-82
2022/06/26 01:23:37;220197.00;0.73;380.68;0.00;0.00;0.62;;;;;24.20;1.00;;;;;;2275899;61;1122;-82
2022/06/26 01:26:05;315111.00;1.05;543.89;0.00;0.00;0.62;;;;;24.30;1.00;;;;;;2276490;61;972;-83
2022/06/26 01:28:32;292288.00;0.97;504.66;0.00;0.00;0.62;;;;;24.30;1.00;;;;;;2276299;61;1994;-83
2022/06/26 01:30:59;114133.00;0.38;197.96;0.00;0.00;0.62;;;;;24.40;1.00;;;;;;2276374;61;1010;-83
2022/06/26 01:33:26;316500.00;1.05;546.28;11581.00;0.04;20.69;;;;;24.30;1.00;;;;;;2276478;61;1035;-82
2022/06/26 01:35:53;845533.00;2.82;1460.65;147519.00;0.49;255.53;;;;;24.30;1.00;;;;;;2276390;61;1582;-83
2022/06/26 01:38:22;740572.00;2.47;1277.67;154248.00;0.51;267.13;;;;;24.30;1.00;;;;;;2276298;61;1436;-82
2022/06/26 01:40:52;548541.00;1.83;945.44;52733.00;0.18;91.91;;;;;24.40;1.00;;;;;;2276425;61;1121;-82
2022/06/26 01:43:21;580358.00;1.93;1000.32;27264.00;0.09;47.85;;;;;24.40;1.00;;;;;;2276392;61;1110;-84
2022/06/26 01:45:50;335120.00;1.12;578.29;0.00;0.00;0.62;;;;;24.50;1.00;;;;;;2292786;39;3565;-84
2022/06/26 01:48:18;177854.00;0.59;307.79;0.00;0.00;0.62;;;;;24.70;1.00;;;;;;2278293;60;1934;-84
2022/06/26 01:50:48;559979.00;1.87;965.16;72444.00;0.24;125.98;;;;;24.70;1.00;;;;;;2276030;61;1049;-83
2022/06/26 01:53:16;648789.00;2.16;1118.54;85699.00;0.29;148.88;;;;;24.80;1.00;;;;;;2276481;61;2063;-82
2022/06/26 01:55:43;633318.00;2.11;1091.79;70442.00;0.23;122.52;;;;;24.80;1.00;;;;;;2276554;61;1011;-83
2022/06/26 01:58:12;737018.00;2.46;1271.49;69788.00;0.23;121.39;;;;;24.60;1.00;;;;;;2276497;61;1414;-83
2022/06/26 02:00:43;385905.00;1.29;665.58;0.00;0.00;0.62;;;;;24.60;1.00;;;;;;2276545;61;1112;-83
2022/06/26 02:03:11;256635.00;0.86;443.36;0.00;0.00;0.62;;;;;24.70;1.00;;;;;;2276508;61;1102;-83
2022/06/26 02:05:38;350324.00;1.17;604.42;70154.00;0.23;122.03;;;;;24.70;1.00;;;;;;2276482;61;1130;-84
2022/06/26 02:08:06;327175.00;1.09;564.63;0.00;0.00;0.62;;;;;24.70;1.00;;;;;;2276450;61;1920;-84
2022/06/26 02:13:39;89807.00;0.30;155.97;0.00;0.00;0.62;;;;;24.50;1.00;;;;;;2276519;61;705;-83
2022/06/26 02:16:07;6420.00;0.02;11.75;0.00;0.00;0.62;;;;;24.50;1.00;;;;;;2276455;61;1126;-83
2022/06/26 02:18:35;79188.00;0.26;137.63;12541.00;0.04;22.35;;;;;24.50;1.00;;;;;;2276365;61;1389;-83
2022/06/26 02:21:02;194128.00;0.65;335.82;61612.00;0.21;107.26;;;;;24.40;1.00;;;;;;2276443;61;1123;-84
2022/06/26 02:23:29;305577.00;1.02;527.51;69630.00;0.23;121.12;;;;;24.30;1.00;;;;;;2276437;61;1105;-84
2022/06/26 02:25:56;0.00;0.00;0.62;0.00;0.00;0.62;;;;;24.40;1.00;;;;;;2276375;61;1127;-83
2022/06/26 02:28:25;0.00;0.00;0.62;0.00;0.00;0.62;;;;;24.30;1.00;;;;;;2276155;61;1994;-84
2022/06/26 02:30:51;47746.00;0.16;83.29;0.00;0.00;0.62;;;;;24.30;1.00;;;;;;2276430;61;1125;-83
2022/06/26 02:33:19;0.00;0.00;0.62;0.00;0.00;0.62;;;;;24.30;1.00;;;;;;2276474;61;1098;-83
2022/06/26 02:35:47;189409.00;0.63;327.69;61099.00;0.20;106.38;;;;;24.30;1.00;;;;;;2276443;61;1118;-84
2022/06/26 02:38:15;0.00;0.00;0.62;0.00;0.00;0.62;;;;;24.30;1.00;;;;;;2275886;61;1372;-83
2022/06/26 02:40:42;0.00;0.00;0.62;0.00;0.00;0.62;;;;;24.30;1.00;;;;;;2276416;61;1211;-82
2022/06/26 02:43:09;7412.00;0.02;13.47;0.00;0.00;0.62;;;;;24.30;1.00;;;;;;2276448;61;1086;-83
2022/06/26 02:45:37;0.00;0.00;0.62;0.00;0.00;0.62;;;;;24.30;1.00;;;;;;2276387;61;1200;-83
2022/06/26 02:48:05;0.00;0.00;0.62;0.00;0.00;0.62;;;;;24.30;1.00;;;;;;2276358;61;1998;-83
2022/06/26 02:50:32;0.00;0.00;0.62;0.00;0.00;0.62;;;;;24.40;1.00;;;;;;2276384;61;1131;-83
2022/06/26 02:52:59;107672.00;0.36;186.81;41535.00;0.14;72.54;;;;;24.20;1.00;;;;;;2276070;61;1126;-84
2022/06/26 02:55:26;35355.00;0.12;61.85;0.00;0.00;0.62;;;;;24.10;1.00;;;;;;2276230;61;2080;-84
2022/06/26 02:57:53;54057.00;0.18;94.20;0.00;0.00;0.62;;;;;23.70;1.00;;;;;;2276211;61;1377;-84
2022/06/26 03:00:20;0.00;0.00;0.62;0.00;0.00;0.62;;;;;23.40;1.00;;;;;;2276407;61;1149;-83
2022/06/26 03:02:48;76928.00;0.26;133.73;0.00;0.00;0.62;;;;;23.40;1.00;;;;;;2276341;61;1024;-84
2022/06/26 03:05:15;78120.00;0.26;135.79;0.00;0.00;0.62;;;;;23.50;1.00;;;;;;2276337;61;1176;-83
2022/06/26 03:07:42;71706.00;0.24;124.71;0.00;0.00;0.62;;;;;23.50;1.00;;;;;;2276194;61;2006;-83
2022/06/26 03:10:09;17418.00;0.06;30.80;0.00;0.00;0.62;;;;;23.60;1.00;;;;;;2276349;61;1075;-82
2022/06/26 03:12:43;40377.00;0.13;70.54;0.00;0.00;0.62;;;;;23.80;1.00;;;;;;2276245;61;1003;-83
2022/06/26 03:15:10;191646.00;0.64;331.54;50058.00;0.17;87.29;;;;;23.90;1.00;;;;;;2276318;61;1746;-82
2022/06/26 03:17:37;49660.00;0.17;86.60;0.00;0.00;0.62;;;;;24.00;1.00;;;;;;2276260;61;1393;-82
2022/06/26 03:20:07;124833.00;0.42;216.42;0.00;0.00;0.62;;;;;24.00;1.00;;;;;;2276307;61;1031;-82
2022/06/26 03:22:34;0.00;0.00;0.62;0.00;0.00;0.62;;;;;23.90;1.00;;;;;;2276242;61;1074;-83
2022/06/26 03:25:01;0.00;0.00;0.62;0.00;0.00;0.62;;;;;24.10;1.00;;;;;;2276203;61;1019;-83
2022/06/26 03:27:28;4611.00;0.02;8.61;0.00;0.00;0.62;;;;;24.10;1.00;;;;;;2276189;61;1919;-82
2022/06/26 03:29:55;71313.00;0.24;124.03;0.00;0.00;0.62;;;;;24.10;1.00;;;;;;2276256;61;1320;-82
2022/06/26 03:32:22;0.00;0.00;0.62;0.00;0.00;0.62;;;;;24.20;1.00;;;;;;2276170;61;1134;-83
2022/06/26 03:34:49;0.00;0.00;0.62;0.00;0.00;0.62;;;;;24.20;1.00;;;;;;2275811;61;1702;-85
2022/06/26 03:37:17;111689.00;0.37;193.74;0.00;0.00;0.62;;;;;24.30;1.00;;;;;;2275299;61;1026;-83
2022/06/26 03:39:44;310492.00;1.03;535.96;43599.00;0.15;76.11;;;;;24.30;1.00;;;;;;2275893;61;1403;-84
2022/06/26 03:42:11;157305.00;0.52;272.40;0.00;0.00;0.62;;;;;24.20;1.00;;;;;;2276827;61;1140;-83
2022/06/26 03:44:38;198843.00;0.66;343.93;0.00;0.00;0.62;;;;;24.10;1.00;;;;;;2276797;61;1068;-83
2022/06/26 03:47:05;248611.00;0.83;429.56;0.00;0.00;0.62;;;;;24.10;1.00;;;;;;2276761;61;1179;-83
2022/06/26 03:49:32;155243.00;0.52;268.84;0.00;0.00;0.62;;;;;24.10;1.00;;;;;;2276612;61;2016;-82
2022/06/26 03:51:59;159419.00;0.53;276.04;0.00;0.00;0.62;;;;;24.00;1.00;;;;;;2276754;61;1039;-83
2022/06/26 03:54:27;405063.00;1.35;698.51;169005.00;0.56;292.55;;;;;24.00;1.00;;;;;;2276826;61;1048;-83
2022/06/26 03:56:54;715.00;0.00;1.86;0.00;0.00;0.62;;;;;23.90;1.00;;;;;;2276738;61;937;-83
2022/06/26 03:59:21;124402.00;0.41;215.68;0.00;0.00;0.62;;;;;24.00;1.00;;;;;;2276757;61;1392;-83
2022/06/26 04:01:48;119003.00;0.40;206.36;0.00;0.00;0.62;;;;;24.00;1.00;;;;;;2276723;61;1111;-83
2022/06/26 04:04:15;65856.00;0.22;114.60;0.00;0.00;0.62;;;;;24.00;1.00;;;;;;2276745;61;1133;-83
2022/06/26 04:06:42;89260.00;0.30;155.03;0.00;0.00;0.62;;;;;24.00;1.00;;;;;;2276692;61;1110;-83
2022/06/26 04:09:09;160682.00;0.54;278.21;0.00;0.00;0.62;;;;;24.30;1.00;;;;;;2276556;61;2008;-82
2022/06/26 04:11:37;129979.00;0.43;225.29;0.00;0.00;0.62;;;;;24.00;1.00;;;;;;2276723;61;1122;-83
2022/06/26 04:14:04;118585.00;0.40;205.64;40119.00;0.13;70.09;;;;;24.00;1.00;;;;;;2276773;61;941;-82
2022/06/26 04:16:31;292617.00;0.98;505.23;5960.00;0.02;10.95;;;;;24.10;1.00;;;;;;2276646;61;1073;-82
2022/06/26 04:18:58;152411.00;0.51;263.96;0.00;0.00;0.62;;;;;24.10;1.00;;;;;;2276689;61;1273;-83
2022/06/26 04:21:25;229483.00;0.76;396.66;24599.00;0.08;43.23;;;;;24.20;1.00;;;;;;2276692;61;1138;-82
2022/06/26 04:23:52;233724.00;0.78;403.96;37962.00;0.13;66.36;;;;;24.30;1.00;;;;;;2276747;61;1138;-83
2022/06/26 04:26:19;313751.00;1.05;541.56;25088.00;0.08;44.08;;;;;24.30;1.00;;;;;;2276674;61;1067;-81
2022/06/26 04:28:47;183531.00;0.61;317.57;0.00;0.00;0.62;;;;;24.40;1.00;;;;;;2276566;61;2005;-82
2022/06/26 04:31:14;101446.00;0.34;176.07;0.00;0.00;0.62;;;;;24.70;1.00;;;;;;2276659;61;1107;-83
2022/06/26 04:33:41;305506.00;1.02;527.38;0.00;0.00;0.62;;;;;24.50;1.00;;;;;;2276685;61;1120;-83
2022/06/26 04:36:08;457332.00;1.52;788.39;0.00;0.00;0.62;;;;;24.50;1.00;;;;;;2276614;61;2174;-83
2022/06/26 04:38:35;490202.00;1.63;844.96;18385.00;0.06;32.47;;;;;24.50;1.00;;;;;;2276797;61;1272;-82
2022/06/26 04:41:31;346586.00;1.16;597.99;28108.00;0.09;49.31;;;;;24.70;1.00;;;;;;2276829;61;1098;-85
2022/06/26 04:43:51;11363.00;0.04;20.31;0.00;0.00;0.62;;;;;24.90;1.00;;;;;;2276790;61;927;-83
2022/06/26 04:46:17;0.00;0.00;0.62;0.00;0.00;0.62;;;;;25.10;1.00;;;;;;2276741;61;1193;-84
2022/06/26 04:48:44;0.00;0.00;0.62;0.00;0.00;0.62;;;;;25.00;1.00;;;;;;2276652;61;1919;-84
2022/06/26 04:51:11;211821.00;0.71;366.27;25367.00;0.08;44.56;;;;;24.90;1.00;;;;;;2276717;61;1122;-82
2022/06/26 04:53:38;133356.00;0.44;231.12;0.00;0.00;0.62;;;;;24.90;1.00;;;;;;2276638;61;1067;-84
2022/06/26 04:56:05;4575.00;0.02;8.55;0.00;0.00;0.62;;;;;24.90;1.00;;;;;;2276629;61;1420;-83
2022/06/26 04:58:32;0.00;0.00;0.62;0.00;0.00;0.62;;;;;24.60;1.00;;;;;;2276670;61;1386;-82
2022/06/26 05:01:02;227488.00;0.76;393.23;95691.00;0.32;166.13;;;;;24.70;1.00;;;;;;2276760;61;1073;-82
2022/06/26 05:03:29;111064.00;0.37;192.67;0.00;0.00;0.62;;;;;24.80;1.00;;;;;;2276696;61;1662;-83
2022/06/26 05:05:56;0.00;0.00;0.62;0.00;0.00;0.62;;;;;24.90;1.00;;;;;;2276271;61;1076;-83
2022/06/26 05:08:23;18087.00;0.06;31.96;0.00;0.00;0.62;;;;;25.00;1.00;;;;;;2276568;61;1915;-82
2022/06/26 05:10:49;0.00;0.00;0.62;0.00;0.00;0.62;;;;;25.10;1.00;;;;;;2276706;61;1090;-83
2022/06/26 05:13:16;0.00;0.00;0.62;0.00;0.00;0.62;;;;;25.10;1.00;;;;;;2276768;61;1122;-84
2022/06/26 05:15:43;17051.00;0.06;30.16;0.00;0.00;0.62;;;;;25.10;1.00;;;;;;2276743;61;1114;-84
2022/06/26 05:18:11;0.00;0.00;0.62;0.00;0.00;0.62;;;;;25.30;1.00;;;;;;2276672;61;1382;-84
2022/06/26 05:20:38;0.00;0.00;0.62;0.00;0.00;0.62;;;;;25.60;1.00;;;;;;2276108;61;1086;-84
2022/06/26 05:23:07;0.00;0.00;0.62;0.00;0.00;0.62;;;;;25.40;1.00;;;;;;2276209;61;1124;-84
2022/06/26 05:25:34;96235.00;0.32;167.07;0.00;0.00;0.62;;;;;25.40;1.00;;;;;;2276450;61;1656;-83
2022/06/26 05:28:01;48952.00;0.16;85.37;0.00;0.00;0.62;;;;;25.40;1.00;;;;;;2276393;61;1910;-83
2022/06/26 05:30:28;0.00;0.00;0.62;0.00;0.00;0.62;;;;;25.30;1.00;;;;;;2276488;61;991;-83
2022/06/26 05:32:55;22008.00;0.07;38.75;0.00;0.00;0.62;;;;;25.50;1.00;;;;;;2276380;61;1039;-82
2022/06/26 05:35:23;230750.00;0.77;398.84;92069.00;0.31;159.88;;;;;25.50;1.00;;;;;;2276414;61;2134;-85
2022/06/26 05:37:50;0.00;0.00;0.62;0.00;0.00;0.62;;;;;25.70;1.00;;;;;;2276404;61;1364;-82
2022/06/26 05:40:17;16761.00;0.06;29.66;0.00;0.00;0.62;;;;;25.70;1.00;;;;;;2276389;61;1106;-83
2022/06/26 05:42:44;0.00;0.00;0.62;0.00;0.00;0.62;;;;;25.90;1.00;;;;;;2276250;61;1171;-82
2022/06/26 05:45:12;0.00;0.00;0.62;0.00;0.00;0.62;;;;;25.70;1.00;;;;;;2276389;61;1087;-81
2022/06/26 05:47:39;0.00;0.00;0.62;0.00;0.00;0.62;;;;;25.70;1.00;;;;;;2276403;61;1285;-83
2022/06/26 05:50:07;0.00;0.00;0.62;0.00;0.00;0.62;;;;;25.90;1.00;;;;;;2276362;61;2029;-82
2022/06/26 05:52:37;115911.00;0.39;201.03;28112.00;0.09;49.32;;;;;25.90;1.00;;;;;;2276286;61;1045;-82
2022/06/26 05:55:05;67078.00;0.22;116.71;0.00;0.00;0.62;;;;;26.10;1.00;;;;;;2276387;61;1048;-82
2022/06/26 05:57:31;0.00;0.00;0.62;0.00;0.00;0.62;;;;;26.40;1.00;;;;;;2276575;61;1369;-82
2022/06/26 05:59:59;0.00;0.00;0.62;0.00;0.00;0.62;;;;;27.80;1.00;;;;;;2276504;61;935;-84
2022/06/26 06:02:26;103135.00;0.34;178.98;0.00;0.00;0.62;;;;;29.20;1.00;;;;;;2276343;61;1071;-83
2022/06/26 06:04:52;0.00;0.00;0.62;0.00;0.00;0.62;;;;;29.90;1.00;;;;;;2276511;61;1125;-84
2022/06/26 06:07:19;44597.00;0.15;77.84;0.00;0.00;0.62;;;;;31.30;1.00;;;;;;2276539;61;1119;-84
2022/06/26 06:09:48;0.00;0.00;0.62;0.00;0.00;0.62;;;;;32.80;1.00;;;;;;2276449;61;2006;-85
2022/06/26 06:12:15;0.00;0.00;0.62;0.00;0.00;0.62;;;;;34.10;1.00;;;;;;2275754;61;1071;-83
2022/06/26 06:14:42;0.00;0.00;0.62;0.00;0.00;0.62;;;;;34.80;1.00;;;;;;2276010;61;1704;-83
2022/06/26 06:19:53;296.00;0.00;1.13;0.00;0.00;0.62;;;;;36.40;1.00;;;;;;2276508;61;674;-83
2022/06/26 06:22:20;149031.00;0.50;258.14;0.00;0.00;0.62;;;;;37.20;1.00;;;;;;2276302;61;1341;-84
2022/06/26 06:24:48;404361.00;1.35;697.30;87443.00;0.29;151.89;;;;;37.60;1.00;;;;;;2276371;61;1447;-84
2022/06/26 06:27:15;20817.00;0.07;36.68;0.00;0.00;0.62;;;;;37.40;1.00;;;;;;2276449;61;1188;-85
2022/06/26 06:29:42;69683.00;0.23;121.21;0.00;0.00;0.62;;;;;37.50;1.00;;;;;;2276425;61;2002;-85
2022/06/26 06:32:09;33231.00;0.11;58.18;0.00;0.00;0.62;;;;;37.80;1.00;;;;;;2276459;61;1148;-83
2022/06/26 06:34:35;0.00;0.00;0.62;0.00;0.00;0.62;;;;;38.10;1.00;;;;;;2276392;61;1642;-85
2022/06/26 06:37:02;8634.00;0.03;15.58;0.00;0.00;0.62;;;;;39.10;1.00;;;;;;2276303;61;1106;-85
2022/06/26 06:39:29;0.00;0.00;0.62;0.00;0.00;0.62;;;;;39.40;1.00;;;;;;2276283;61;1721;-83
2022/06/26 06:41:57;61097.00;0.20;106.37;0.00;0.00;0.62;;;;;38.40;1.00;;;;;;2276295;61;1059;-85
2022/06/26 06:44:24;0.00;0.00;0.62;0.00;0.00;0.62;;;;;38.50;1.00;;;;;;2276337;61;1118;-85
2022/06/26 06:46:51;0.00;0.00;0.62;0.00;0.00;0.62;;;;;38.30;1.00;;;;;;2276238;61;1063;-85
2022/06/26 06:49:18;0.00;0.00;0.62;0.00;0.00;0.62;;;;;39.20;1.00;;;;;;2276231;61;1994;-84
2022/06/26 06:51:45;49754.00;0.17;86.76;0.00;0.00;0.62;;;;;37.90;1.00;;;;;;2276387;61;1073;-85
2022/06/26 06:54:12;0.00;0.00;0.62;0.00;0.00;0.62;;;;;37.10;1.00;;;;;;2276426;61;1178;-85
2022/06/26 06:56:39;309352.00;1.03;534.00;85744.00;0.29;148.96;;;;;37.20;1.00;;;;;;2276381;61;1168;-84
2022/06/26 06:59:07;0.00;0.00;0.62;0.00;0.00;0.62;;;;;37.40;1.00;;;;;;2276336;61;1412;-84
2022/06/26 07:01:34;0.00;0.00;0.62;0.00;0.00;0.62;;;;;37.60;1.00;;;;;;2276453;61;1017;-84
2022/06/26 07:04:01;0.00;0.00;0.62;0.00;0.00;0.62;;;;;38.50;1.00;;;;;;2276294;61;2234;-85
2022/06/26 07:06:28;0.00;0.00;0.62;0.00;0.00;0.62;;;;;38.60;1.00;;;;;;2276029;61;1168;-84
2022/06/26 07:08:55;68952.00;0.23;119.95;0.00;0.00;0.62;;;;;39.00;1.00;;;;;;2276216;61;2001;-84
2022/06/26 07:11:22;0.00;0.00;0.62;0.00;0.00;0.62;;;;;39.30;1.00;;;;;;2276243;61;927;-84
2022/06/26 07:13:49;43180.00;0.14;75.39;0.00;0.00;0.62;;;;;39.10;1.00;;;;;;2276257;61;1138;-85
2022/06/26 07:16:17;108697.00;0.36;188.58;0.00;0.00;0.62;;;;;40.00;1.00;;;;;;2276151;61;1185;-85
2022/06/26 07:18:44;46281.00;0.15;80.75;0.00;0.00;0.62;;;;;39.50;1.00;;;;;;2275429;61;1384;-84
2022/06/26 07:21:12;0.00;0.00;0.62;0.00;0.00;0.62;;;;;39.50;1.00;;;;;;2275966;61;1086;-84
2022/06/26 07:23:38;89882.00;0.30;156.10;0.00;0.00;0.62;;;;;38.80;1.00;;;;;;2275998;61;1095;-85
2022/06/26 07:26:05;0.00;0.00;0.62;0.00;0.00;0.62;;;;;38.90;1.00;;;;;;2275927;61;1099;-84
2022/06/26 07:28:32;0.00;0.00;0.62;0.00;0.00;0.62;;;;;39.30;1.00;;;;;;2275874;61;2004;-84
2022/06/26 07:30:59;0.00;0.00;0.62;0.00;0.00;0.62;;;;;39.70;1.00;;;;;;2276051;61;1229;-85
2022/06/26 07:36:12;0.00;0.00;0.62;0.00;0.00;0.62;;;;;39.40;1.00;;;;;;2276152;61;594;-84
2022/06/26 07:38:39;0.00;0.00;0.62;0.00;0.00;0.62;;;;;39.50;1.00;;;;;;2275937;61;1402;-85
2022/06/26 07:41:06;0.00;0.00;0.62;0.00;0.00;0.62;;;;;39.50;1.00;;;;;;2276048;61;1139;-84
2022/06/26 07:43:33;0.00;0.00;0.62;0.00;0.00;0.62;;;;;39.40;1.00;;;;;;2275998;61;1090;-84
2022/06/26 07:46:00;0.00;0.00;0.62;0.00;0.00;0.62;;;;;38.90;1.00;;;;;;2276161;61;1124;-84
2022/06/26 07:48:28;0.00;0.00;0.62;0.00;0.00;0.62;;;;;39.30;1.00;;;;;;2275911;61;1287;-85
2022/06/26 07:50:55;0.00;0.00;0.62;0.00;0.00;0.62;;;;;39.70;1.00;;;;;;2275641;61;2023;-83
2022/06/26 07:53:22;16712.00;0.06;29.58;0.00;0.00;0.62;;;;;39.10;1.00;;;;;;2276304;61;1090;-84
2022/06/26 07:55:49;48361.00;0.16;84.35;0.00;0.00;0.62;;;;;38.10;1.00;;;;;;2276372;61;1075;-84
2022/06/26 07:58:16;0.00;0.00;0.62;0.00;0.00;0.62;;;;;37.90;1.00;;;;;;2276302;61;1295;-83
2022/06/26 08:00:42;0.00;0.00;0.62;0.00;0.00;0.62;;;;;38.20;1.00;;;;;;2276273;61;1094;-83
2022/06/26 08:03:11;0.00;0.00;0.62;0.00;0.00;0.62;;;;;38.10;1.00;;;;;;2276208;61;2144;-83
2022/06/26 08:05:39;0.00;0.00;0.62;0.00;0.00;0.62;;;;;38.40;1.00;;;;;;2276271;61;1049;-84
2022/06/26 08:08:07;0.00;0.00;0.62;0.00;0.00;0.62;;;;;37.50;1.00;;;;;;2276025;61;1388;-85
2022/06/26 08:10:34;0.00;0.00;0.62;0.00;0.00;0.62;;;;;37.40;1.00;;;;;;2275332;61;2002;-85
2022/06/26 08:13:01;16123.00;0.05;28.56;0.00;0.00;0.62;;;;;37.80;1.00;;;;;;2275715;61;1126;-85
2022/06/26 08:15:28;205071.00;0.68;354.65;0.00;0.00;0.62;;;;;37.70;1.00;;;;;;2276055;61;1176;-84
2022/06/26 08:17:55;52142.00;0.17;90.89;0.00;0.00;0.62;;;;;37.10;1.00;;;;;;2275987;61;1392;-85
2022/06/26 08:20:23;110224.00;0.37;191.22;18240.00;0.06;32.22;;;;;37.40;1.00;;;;;;2275846;61;1023;-84
2022/06/26 08:22:51;0.00;0.00;0.62;0.00;0.00;0.62;;;;;37.90;1.00;;;;;;2275713;61;2447;-85
2022/06/26 08:25:18;0.00;0.00;0.62;0.00;0.00;0.62;;;;;38.30;1.00;;;;;;2276050;61;1089;-83
2022/06/26 08:27:45;31616.00;0.11;55.38;0.00;0.00;0.62;;;;;38.20;1.00;;;;;;2276687;61;1772;-86
2022/06/26 08:30:13;31221.00;0.10;54.70;0.00;0.00;0.62;;;;;37.10;1.00;;;;;;2275941;61;1997;-86
2022/06/26 08:32:40;144698.00;0.48;250.67;24276.00;0.08;42.67;;;;;37.00;1.00;;;;;;2276760;61;1176;-84
2022/06/26 08:35:09;0.00;0.00;0.62;0.00;0.00;0.62;;;;;36.10;1.00;;;;;;2276447;61;1156;-85
2022/06/26 08:37:36;87889.00;0.29;152.66;0.00;0.00;0.62;;;;;35.70;1.00;;;;;;2276195;61;1432;-84
2022/06/26 08:40:05;102981.00;0.34;178.72;0.00;0.00;0.62;;;;;35.70;1.00;;;;;;2276762;61;1184;-85
2022/06/26 08:42:32;68610.00;0.23;119.36;0.00;0.00;0.62;;;;;35.30;1.00;;;;;;2276755;61;1156;-85
2022/06/26 08:45:00;206083.00;0.69;356.39;0.00;0.00;0.62;;;;;36.10;1.00;;;;;;2276655;61;921;-85
2022/06/26 08:47:33;45626.00;0.15;79.62;0.00;0.00;0.62;;;;;35.70;1.00;;;;;;2276273;61;1197;-84
2022/06/26 08:50:02;141110.00;0.47;244.48;55040.00;0.18;95.90;;;;;35.70;1.00;;;;;;2276072;61;1994;-84
2022/06/26 08:52:31;42282.00;0.14;73.84;0.00;0.00;0.62;;;;;35.60;1.00;;;;;;2276478;61;1122;-85
2022/06/26 08:54:58;10715.00;0.04;19.19;0.00;0.00;0.62;;;;;36.20;1.00;;;;;;2276828;61;1153;-84
2022/06/26 08:57:26;28757.00;0.10;50.43;0.00;0.00;0.62;;;;;36.30;1.00;;;;;;2276788;61;1090;-85
2022/06/26 08:59:53;0.00;0.00;0.62;0.00;0.00;0.62;;;;;35.80;1.00;;;;;;2276803;61;1352;-84
2022/06/26 09:02:20;0.00;0.00;0.62;0.00;0.00;0.62;;;;;36.00;1.00;;;;;;2276766;61;1055;-85
2022/06/26 09:04:47;0.00;0.00;0.62;0.00;0.00;0.62;;;;;35.60;1.00;;;;;;2276781;61;1094;-83
2022/06/26 09:07:14;72781.00;0.24;126.57;0.00;0.00;0.62;;;;;36.20;1.00;;;;;;2276780;61;958;-84
2022/06/26 09:09:41;72197.00;0.24;125.56;0.00;0.00;0.62;;;;;36.30;1.00;;;;;;2276758;61;1912;-84
2022/06/26 09:12:08;0.00;0.00;0.62;0.00;0.00;0.62;;;;;36.50;1.00;;;;;;2276829;61;1120;-84
2022/06/26 09:14:36;29732.00;0.10;52.12;0.00;0.00;0.62;;;;;35.90;1.00;;;;;;2276781;61;1139;-84
2022/06/26 09:17:05;0.00;0.00;0.62;0.00;0.00;0.62;;;;;35.80;1.00;;;;;;2276844;61;1062;-84
2022/06/26 09:19:36;0.00;0.00;0.62;0.00;0.00;0.62;;;;;36.00;1.00;;;;;;2276754;61;1283;-84
2022/06/26 09:22:08;0.00;0.00;0.62;0.00;0.00;0.62;;;;;36.10;1.00;;;;;;2276634;61;1003;-84
2022/06/26 09:24:36;0.00;0.00;0.62;0.00;0.00;0.62;;;;;36.10;1.00;;;;;;2276674;61;1126;-85
2022/06/26 09:27:06;35431.00;0.12;61.98;0.00;0.00;0.62;;;;;35.90;1.00;;;;;;2275923;61;1723;-84
2022/06/26 09:29:33;80980.00;0.27;140.73;0.00;0.00;0.62;;;;;34.60;1.00;;;;;;2276574;61;2010;-84
2022/06/26 09:32:12;172710.00;0.58;298.93;0.00;0.00;0.62;;;;;33.60;1.00;;;;;;2276755;61;1063;-84
2022/06/26 09:34:43;0.00;0.00;0.62;0.00;0.00;0.62;;;;;33.10;1.00;;;;;;2276751;61;1189;-85
2022/06/26 09:37:10;0.00;0.00;0.62;0.00;0.00;0.62;;;;;33.00;1.00;;;;;;2276528;61;1165;-84
2022/06/26 09:39:37;0.00;0.00;0.62;0.00;0.00;0.62;;;;;32.60;1.00;;;;;;2276683;61;1334;-85
2022/06/26 09:42:16;0.00;0.00;0.62;0.00;0.00;0.62;;;;;32.60;1.00;;;;;;2276770;61;1051;-84
2022/06/26 09:44:47;0.00;0.00;0.62;0.00;0.00;0.62;;;;;33.00;1.00;;;;;;2276715;61;1084;-83
2022/06/26 09:47:27;0.00;0.00;0.62;0.00;0.00;0.62;;;;;32.40;1.00;;;;;;2276735;61;1139;-84
2022/06/26 09:49:56;0.00;0.00;0.62;0.00;0.00;0.62;;;;;32.00;1.00;;;;;;2276625;61;2219;-84
2022/06/26 09:52:24;0.00;0.00;0.62;0.00;0.00;0.62;;;;;31.60;1.00;;;;;;2276728;61;1016;-84
2022/06/26 09:54:52;0.00;0.00;0.62;0.00;0.00;0.62;;;;;32.10;1.00;;;;;;2276660;61;1077;-84
2022/06/26 09:57:19;0.00;0.00;0.62;0.00;0.00;0.62;;;;;31.70;1.00;;;;;;2276655;61;1147;-84
2022/06/26 09:59:47;0.00;0.00;0.62;0.00;0.00;0.62;;;;;31.50;1.00;;;;;;2276639;61;1396;-84
2022/06/26 10:07:48;50797.00;0.17;88.56;0.00;0.00;0.62;;;;;31.50;1.00;;;;;;2270108;61;1491;-85
2022/06/26 10:10:16;69756.00;0.23;121.34;0.00;0.00;0.62;;;;;31.90;1.00;;;;;;2276596;61;2002;-85
2022/06/26 10:12:43;47860.00;0.16;83.49;0.00;0.00;0.62;;;;;32.00;1.00;;;;;;2276564;61;1151;-84
2022/06/26 10:15:12;174251.00;0.58;301.59;0.00;0.00;0.62;;;;;31.70;1.00;;;;;;2276561;61;1137;-83
2022/06/26 10:18:00;12458.00;0.04;22.21;0.00;0.00;0.62;;;;;31.60;1.00;;;;;;2276560;61;1412;-84
2022/06/26 10:20:31;20893.00;0.07;36.82;0.00;0.00;0.62;;;;;31.40;1.00;;;;;;2276562;61;1099;-83
2022/06/26 10:22:57;164227.00;0.55;284.32;0.00;0.00;0.62;;;;;31.00;1.00;;;;;;2276445;61;1072;-83
2022/06/26 10:25:26;193782.00;0.65;335.22;49776.00;0.17;86.80;;;;;30.50;1.00;;;;;;2276567;61;1071;-84